createdAt,value
2023-05-19T00:01:25.850Z,101443.19
2023-05-19T00:03:57.615Z,101438.34
2023-05-19T00:06:27.320Z,101428.31
2023-05-19T00:09:03.388Z,101433.56
2023-05-19T00:11:30.822Z,101430.44
2023-05-19T00:14:00.224Z,101432.38
2023-05-19T00:16:29.512Z,101426.25
2023-05-19T00:19:00.267Z,101438.75
2023-05-19T00:21:28.103Z,101436.53
2023-05-19T00:23:55.764Z,101429.50
2023-05-19T00:26:23.558Z,101436.34
2023-05-19T00:28:51.139Z,101434.47
2023-05-19T00:31:18.152Z,101431.38
2023-05-19T00:33:45.512Z,101423.06
2023-05-19T00:36:12.984Z,101434.78
2023-05-19T00:38:40.078Z,101436.25
2023-05-19T00:41:07.825Z,101431.53
2023-05-19T00:43:34.950Z,101434.03
2023-05-19T00:46:03.206Z,101439.88
2023-05-19T00:48:30.479Z,101427.41
2023-05-19T00:51:04.247Z,101428.16
2023-05-19T00:53:33.568Z,101411.81
2023-05-19T00:56:02.243Z,101428.16
2023-05-19T00:58:30.798Z,101432.13
2023-05-19T01:01:07.858Z,101427.41
2023-05-19T01:03:36.302Z,101429.56
2023-05-19T01:06:07.970Z,101420.38
2023-05-19T01:08:37.681Z,101425.31
2023-05-19T01:11:07.023Z,101419.38
2023-05-19T01:13:36.369Z,101416.25
2023-05-19T01:16:36.598Z,101426.28
2023-05-19T01:19:25.538Z,101416.91
2023-05-19T01:22:26.309Z,101414.31
2023-05-19T01:25:33.441Z,101416.22
2023-05-19T01:28:15.834Z,101410.00
2023-05-19T01:30:45.439Z,101419.38
2023-05-19T01:33:15.251Z,101409.66
2023-05-19T01:35:44.199Z,101413.75
2023-05-19T01:38:14.836Z,101408.06
2023-05-19T01:40:43.796Z,101415.06
2023-05-19T01:43:27.155Z,101410.34
2023-05-19T01:45:57.462Z,101409.44
2023-05-19T01:48:25.600Z,101409.31
2023-05-19T01:50:52.794Z,101409.78
2023-05-19T01:53:19.848Z,101399.03
2023-05-19T01:55:50.979Z,101400.22
2023-05-19T01:58:41.531Z,101398.72
2023-05-19T02:01:11.364Z,101402.47
2023-05-19T02:04:14.986Z,101394.69
2023-05-19T02:07:03.619Z,101393.22
2023-05-19T02:09:42.456Z,101393.75
2023-05-19T02:12:30.693Z,101395.34
2023-05-19T02:15:15.667Z,101395.78
2023-05-19T02:17:51.819Z,101377.72
2023-05-19T02:20:19.490Z,101400.59
2023-05-19T02:22:46.609Z,101393.69
2023-05-19T02:25:13.971Z,101388.25
2023-05-19T02:27:42.051Z,101396.53
2023-05-19T02:30:10.322Z,101400.44
2023-05-19T02:32:37.731Z,101394.31
2023-05-19T02:35:05.557Z,101389.31
2023-05-19T02:37:32.678Z,101396.00
2023-05-19T02:39:59.850Z,101387.16
2023-05-19T02:42:26.958Z,101386.88
2023-05-19T02:44:55.309Z,101386.59
2023-05-19T02:47:22.412Z,101387.78
2023-05-19T02:49:49.531Z,101386.25
2023-05-19T02:52:16.657Z,101397.47
2023-05-19T02:54:43.771Z,101398.00
2023-05-19T02:57:11.303Z,101394.25
2023-05-19T02:59:38.396Z,101389.19
2023-05-19T03:02:05.532Z,101393.47
2023-05-19T03:04:32.714Z,101397.38
2023-05-19T03:06:59.789Z,101395.28
2023-05-19T03:09:27.020Z,101398.22
2023-05-19T03:11:54.061Z,101399.13
2023-05-19T03:14:24.031Z,101388.28
2023-05-19T03:16:51.594Z,101403.25
2023-05-19T03:19:18.819Z,101396.19
2023-05-19T03:21:46.394Z,101397.84
2023-05-19T03:24:13.874Z,101394.09
2023-05-19T03:26:42.120Z,101395.44
2023-05-19T03:29:09.164Z,101402.28
2023-05-19T03:31:36.384Z,101399.41
2023-05-19T03:34:03.617Z,101398.50
2023-05-19T03:36:32.306Z,101402.34
2023-05-19T03:38:59.679Z,101406.72
2023-05-19T03:41:26.706Z,101407.03
2023-05-19T03:43:53.729Z,101407.34
2023-05-19T03:46:21.030Z,101410.59
2023-05-19T03:48:48.207Z,101407.44
2023-05-19T03:51:15.334Z,101399.19
2023-05-19T03:53:42.554Z,101397.69
2023-05-19T03:56:13.919Z,101400.13
2023-05-19T03:58:45.065Z,101405.19
2023-05-19T04:01:12.262Z,101399.75
2023-05-19T04:03:39.321Z,101401.94
2023-05-19T04:06:06.824Z,101401.00
2023-05-19T04:08:33.962Z,101400.66
2023-05-19T04:11:01.504Z,101405.09
2023-05-19T04:13:28.626Z,101402.53
2023-05-19T04:15:56.078Z,101405.19
2023-05-19T04:18:23.394Z,101396.84
2023-05-19T04:20:51.217Z,101405.88
2023-05-19T04:23:18.258Z,101397.38
2023-05-19T04:25:45.380Z,101400.59
2023-05-19T04:28:13.019Z,101407.28
2023-05-19T04:30:40.317Z,101411.06
2023-05-19T04:33:07.761Z,101406.09
2023-05-19T04:35:35.242Z,101408.06
2023-05-19T04:38:02.874Z,101405.69
2023-05-19T04:40:31.512Z,101400.94
2023-05-19T04:42:59.160Z,101404.84
2023-05-19T04:45:26.395Z,101406.88
2023-05-19T04:47:57.909Z,101408.78
2023-05-19T04:50:25.406Z,101394.00
2023-05-19T04:52:52.507Z,101401.84
2023-05-19T04:55:19.793Z,101405.81
2023-05-19T04:57:47.049Z,101408.47
2023-05-19T05:00:14.833Z,101411.53
2023-05-19T05:02:43.071Z,101400.25
2023-05-19T05:05:10.332Z,101408.53
2023-05-19T05:07:37.416Z,101410.34
2023-05-19T05:10:05.392Z,101404.22
2023-05-19T05:12:33.110Z,101408.44
2023-05-19T05:15:00.576Z,101408.69
2023-05-19T05:17:28.359Z,101408.47
2023-05-19T05:19:56.008Z,101404.00
2023-05-19T05:22:23.492Z,101408.53
2023-05-19T05:24:50.997Z,101401.41
2023-05-19T05:27:18.133Z,101406.81
2023-05-19T05:29:45.334Z,101406.47
2023-05-19T05:32:12.432Z,101404.91
2023-05-19T05:34:41.113Z,101410.59
2023-05-19T05:37:08.182Z,101402.69
2023-05-19T05:39:35.407Z,101412.94
2023-05-19T05:42:02.668Z,101407.22
2023-05-19T05:44:29.886Z,101406.72
2023-05-19T05:46:57.413Z,101404.78
2023-05-19T05:49:24.900Z,101392.84
2023-05-19T05:52:04.922Z,101401.16
2023-05-19T05:54:33.953Z,101403.38
2023-05-19T05:57:02.647Z,101411.88
2023-05-19T05:59:29.802Z,101402.31
2023-05-19T06:01:56.885Z,101406.31
2023-05-19T06:04:25.721Z,101409.50
2023-05-19T06:06:52.820Z,101406.78
2023-05-19T06:09:20.067Z,101409.09
2023-05-19T06:11:47.191Z,101401.28
2023-05-19T06:14:14.234Z,101410.75
2023-05-19T06:16:41.690Z,101407.44
2023-05-19T06:19:08.877Z,101413.41
2023-05-19T06:21:35.952Z,101412.63
2023-05-19T06:24:03.102Z,101413.41
2023-05-19T06:26:30.182Z,101414.97
2023-05-19T06:28:57.553Z,101412.31
2023-05-19T06:31:26.575Z,101412.41
2023-05-19T06:33:53.890Z,101412.81
2023-05-19T06:36:21.098Z,101404.47
2023-05-19T06:38:48.187Z,101415.66
2023-05-19T06:41:15.332Z,101415.47
2023-05-19T06:43:43.291Z,101409.00
2023-05-19T06:46:12.236Z,101409.25
2023-05-19T06:48:39.556Z,101408.81
2023-05-19T06:51:06.714Z,101404.63
2023-05-19T06:53:35.023Z,101407.66
2023-05-19T06:56:02.091Z,101407.34
2023-05-19T06:58:29.141Z,101397.75
2023-05-19T07:00:56.434Z,101404.03
2023-05-19T07:03:23.575Z,101409.53
2023-05-19T07:05:51.054Z,101397.88
2023-05-19T07:08:18.074Z,101399.56
2023-05-19T07:10:45.157Z,101395.78
2023-05-19T07:13:12.241Z,101401.63
2023-05-19T07:15:39.513Z,101400.44
2023-05-19T07:18:06.628Z,101397.34
2023-05-19T07:20:34.031Z,101402.44
2023-05-19T07:23:02.746Z,101400.25
2023-05-19T07:25:30.698Z,101395.97
2023-05-19T07:27:57.883Z,101402.63
2023-05-19T07:30:27.955Z,101402.59
2023-05-19T07:32:55.581Z,101401.59
2023-05-19T07:35:23.055Z,101406.13
2023-05-19T07:37:52.642Z,101405.59
2023-05-19T07:40:19.895Z,101410.63
2023-05-19T07:42:48.142Z,101408.19
2023-05-19T07:45:15.182Z,101404.88
2023-05-19T07:47:42.360Z,101402.19
2023-05-19T07:50:09.649Z,101408.34
2023-05-19T07:52:36.770Z,101406.78
2023-05-19T07:55:04.209Z,101409.75
2023-05-19T07:57:32.464Z,101408.31
2023-05-19T07:59:59.535Z,101408.56
2023-05-19T08:02:26.708Z,101402.84
2023-05-19T08:04:54.312Z,101402.03
2023-05-19T08:07:21.502Z,101407.09
2023-05-19T08:09:51.509Z,101402.03
2023-05-19T08:12:18.663Z,101404.66
2023-05-19T08:14:46.018Z,101400.38
2023-05-19T08:17:13.098Z,101408.91
2023-05-19T08:19:40.326Z,101412.50
2023-05-19T08:22:07.389Z,101406.72
2023-05-19T08:24:34.621Z,101398.63
2023-05-19T08:27:01.664Z,101407.28
2023-05-19T08:29:28.725Z,101407.41
2023-05-19T08:31:55.911Z,101406.69
2023-05-19T08:34:22.977Z,101401.47
2023-05-19T08:36:50.222Z,101403.28
2023-05-19T08:39:19.640Z,101409.16
2023-05-19T08:41:46.850Z,101400.81
2023-05-19T08:44:13.924Z,101403.63
2023-05-19T08:46:41.826Z,101401.22
2023-05-19T08:49:13.506Z,101407.53
2023-05-19T08:52:23.370Z,101404.06
2023-05-19T08:55:01.016Z,101391.59
2023-05-19T08:57:28.801Z,101398.22
2023-05-19T08:59:56.721Z,101395.13
2023-05-19T09:02:24.397Z,101399.31
2023-05-19T09:04:52.806Z,101399.44
2023-05-19T09:07:21.992Z,101406.53
2023-05-19T09:09:49.551Z,101401.97
2023-05-19T09:12:16.576Z,101396.25
2023-05-19T09:14:44.038Z,101406.16
2023-05-19T09:17:11.176Z,101403.91
2023-05-19T09:19:44.539Z,101400.06
2023-05-19T09:22:12.109Z,101401.59
2023-05-19T09:24:40.531Z,101408.75
2023-05-19T09:27:09.116Z,101410.28
2023-05-19T09:29:36.143Z,101411.31
2023-05-19T09:32:06.232Z,101409.00
2023-05-19T09:34:33.407Z,101403.97
2023-05-19T09:37:00.599Z,101402.78
2023-05-19T09:39:28.893Z,101404.09
2023-05-19T09:41:58.737Z,101404.66
2023-05-19T09:44:31.238Z,101407.09
2023-05-19T09:46:58.969Z,101404.44
2023-05-19T09:49:30.531Z,101397.13
2023-05-19T09:51:59.663Z,101407.13
2023-05-19T09:54:31.998Z,101406.53
2023-05-19T09:57:01.011Z,101404.44
2023-05-19T09:59:32.047Z,101401.00
2023-05-19T10:02:01.551Z,101409.25
2023-05-19T10:04:30.459Z,101400.69
2023-05-19T10:07:01.713Z,101406.19
2023-05-19T10:09:29.934Z,101400.81
2023-05-19T10:11:58.892Z,101398.38
2023-05-19T10:14:28.477Z,101409.69
2023-05-19T10:16:57.800Z,101404.94
2023-05-19T10:19:27.835Z,101398.72
2023-05-19T10:21:56.305Z,101388.09
2023-05-19T10:24:23.427Z,101400.94
2023-05-19T10:26:54.111Z,101389.38
2023-05-19T10:29:28.214Z,101373.81
2023-05-19T10:32:01.245Z,101383.31
2023-05-19T10:35:09.336Z,101387.22
2023-05-19T10:38:16.494Z,101390.47
2023-05-19T10:41:11.676Z,101385.78
2023-05-19T10:44:00.507Z,101387.88
2023-05-19T10:46:28.652Z,101388.25
2023-05-19T10:48:56.050Z,101383.50
2023-05-19T10:51:32.533Z,101387.78
2023-05-19T10:54:03.276Z,101388.72
2023-05-19T10:56:36.414Z,101388.59
2023-05-19T10:59:04.208Z,101393.59
2023-05-19T11:01:39.000Z,101391.06
2023-05-19T11:04:12.453Z,101387.53
2023-05-19T11:06:40.808Z,101392.09
2023-05-19T11:09:14.558Z,101393.63
2023-05-19T11:11:46.342Z,101395.84
2023-05-19T11:14:15.100Z,101394.34
2023-05-19T11:16:43.206Z,101386.47
2023-05-19T11:19:20.053Z,101385.56
2023-05-19T11:21:57.624Z,101389.50
2023-05-19T11:24:36.099Z,101393.63
2023-05-19T11:27:31.260Z,101392.78
2023-05-19T11:30:14.526Z,101391.22
2023-05-19T11:32:42.940Z,101393.00
2023-05-19T11:35:11.156Z,101388.38
2023-05-19T11:37:40.513Z,101398.06
2023-05-19T11:40:08.396Z,101393.47
2023-05-19T11:42:37.032Z,101393.75
2023-05-19T11:45:06.099Z,101389.72
2023-05-19T11:47:42.573Z,101395.69
2023-05-19T11:50:20.649Z,101396.75
2023-05-19T11:52:47.950Z,101394.88
2023-05-19T11:55:25.324Z,101396.72
2023-05-19T11:58:04.738Z,101391.13
2023-05-19T12:00:39.092Z,101390.38
2023-05-19T12:03:07.163Z,101394.38
2023-05-19T12:05:42.961Z,101402.22
2023-05-19T12:08:11.814Z,101394.91
2023-05-19T12:10:40.283Z,101398.53
2023-05-19T12:13:10.653Z,101401.41
2023-05-19T12:15:38.938Z,101396.44
2023-05-19T12:18:06.773Z,101391.31
2023-05-19T12:20:36.286Z,101390.69
2023-05-19T12:23:04.225Z,101398.00
2023-05-19T12:25:32.053Z,101389.44
2023-05-19T12:28:05.513Z,101393.91
2023-05-19T12:30:34.725Z,101388.38
2023-05-19T12:33:03.407Z,101391.97
2023-05-19T12:35:34.258Z,101393.25
2023-05-19T12:38:06.266Z,101392.00
2023-05-19T12:40:37.806Z,101392.03
2023-05-19T12:43:06.890Z,101375.44
2023-05-19T12:45:38.324Z,101385.28
2023-05-19T12:48:11.657Z,101389.50
2023-05-19T12:50:39.087Z,101393.75
2023-05-19T12:53:10.736Z,101384.19
2023-05-19T12:55:45.430Z,101379.78
2023-05-19T12:58:13.363Z,101382.28
2023-05-19T13:00:47.330Z,101382.72
2023-05-19T13:03:20.559Z,101371.22
2023-05-19T13:05:51.000Z,101376.00
2023-05-19T13:08:21.635Z,101383.91
2023-05-19T13:10:51.810Z,101379.66
2023-05-19T13:13:19.408Z,101379.63
2023-05-19T13:15:50.625Z,101386.81
2023-05-19T13:18:18.328Z,101371.97
2023-05-19T13:20:47.199Z,101382.13
2023-05-19T13:23:14.956Z,101378.47
2023-05-19T13:25:42.806Z,101387.09
2023-05-19T13:28:10.506Z,101387.53
2023-05-19T13:30:43.549Z,101385.56
2023-05-19T13:33:11.554Z,101378.34
2023-05-19T13:35:39.193Z,101376.03
2023-05-19T13:38:09.621Z,101387.34
2023-05-19T13:40:37.343Z,101376.34
2023-05-19T13:43:04.861Z,101378.13
2023-05-19T13:45:31.996Z,101381.97
2023-05-19T13:47:59.116Z,101380.06
2023-05-19T13:50:26.524Z,101379.50
2023-05-19T13:52:53.925Z,101377.25
2023-05-19T13:55:21.260Z,101373.31
2023-05-19T13:57:48.305Z,101379.53
2023-05-19T14:00:16.054Z,101376.41
2023-05-19T14:02:43.303Z,101371.00
2023-05-19T14:05:10.628Z,101377.50
2023-05-19T14:07:38.437Z,101375.72
2023-05-19T14:10:06.942Z,101382.38
2023-05-19T14:12:45.068Z,101377.66
2023-05-19T14:15:20.141Z,101381.03
2023-05-19T14:17:49.030Z,101386.13
2023-05-19T14:20:16.290Z,101381.19
2023-05-19T14:22:43.413Z,101388.03
2023-05-19T14:25:10.636Z,101382.81
2023-05-19T14:27:39.911Z,101376.56
2023-05-19T14:30:08.579Z,101383.69
2023-05-19T14:32:36.103Z,101382.91
2023-05-19T14:35:03.579Z,101391.34
2023-05-19T14:37:32.015Z,101383.81
2023-05-19T14:39:59.588Z,101384.53
2023-05-19T14:42:26.717Z,101373.19
2023-05-19T14:44:53.886Z,101382.72
2023-05-19T14:47:21.040Z,101377.78
2023-05-19T14:49:48.203Z,101378.09
2023-05-19T14:52:15.326Z,101377.59
2023-05-19T14:54:42.493Z,101376.97
2023-05-19T14:57:09.527Z,101380.81
2023-05-19T14:59:39.821Z,101379.28
2023-05-19T15:02:07.200Z,101384.09
2023-05-19T15:04:34.271Z,101384.06
2023-05-19T15:09:31.827Z,101385.97
2023-05-19T15:12:01.302Z,101398.28
2023-05-19T15:14:30.518Z,101401.94
2023-05-19T15:16:59.337Z,101401.19
2023-05-19T15:19:26.946Z,101402.94
2023-05-19T15:21:54.324Z,101397.72
2023-05-19T15:24:21.523Z,101399.81
2023-05-19T15:26:48.788Z,101394.78
2023-05-19T15:29:15.932Z,101390.31
2023-05-19T15:31:43.251Z,101390.44
2023-05-19T15:34:10.439Z,101388.94
2023-05-19T15:36:37.503Z,101386.19
2023-05-19T15:39:05.148Z,101380.53
2023-05-19T15:41:32.272Z,101381.66
2023-05-19T15:44:02.797Z,101386.72
2023-05-19T15:46:30.576Z,101382.75
2023-05-19T15:48:57.723Z,101381.63
2023-05-19T15:51:24.971Z,101373.69
2023-05-19T15:53:52.994Z,101368.38
2023-05-19T15:56:20.074Z,101373.97
2023-05-19T15:58:47.338Z,101377.41
2023-05-19T16:01:15.664Z,101370.09
2023-05-19T16:03:43.704Z,101363.25
2023-05-19T16:06:11.078Z,101364.41
2023-05-19T16:08:38.231Z,101370.28
2023-05-19T16:11:05.676Z,101367.88
2023-05-19T16:13:33.893Z,101360.31
2023-05-19T16:16:01.113Z,101355.72
2023-05-19T16:18:29.340Z,101364.59
2023-05-19T16:20:56.679Z,101361.00
2023-05-19T16:23:24.827Z,101363.34
2023-05-19T16:25:52.355Z,101365.78
2023-05-19T16:28:19.547Z,101366.44
2023-05-19T16:30:46.707Z,101360.72
2023-05-19T16:33:13.798Z,101364.91
2023-05-19T16:35:40.937Z,101358.22
2023-05-19T16:38:08.206Z,101365.38
2023-05-19T16:40:35.777Z,101356.50
2023-05-19T16:43:02.996Z,101361.91
2023-05-19T16:45:30.059Z,101362.19
2023-05-19T16:47:57.148Z,101371.09
2023-05-19T16:50:24.278Z,101367.56
2023-05-19T16:52:51.308Z,101359.44
2023-05-19T16:55:20.104Z,101360.97
2023-05-19T16:57:47.429Z,101356.41
2023-05-19T17:00:15.659Z,101358.06
2023-05-19T17:02:42.902Z,101353.19
2023-05-19T17:05:10.211Z,101365.00
2023-05-19T17:07:37.274Z,101352.88
2023-05-19T17:10:04.842Z,101361.56
2023-05-19T17:12:31.910Z,101354.56
2023-05-19T17:14:58.981Z,101352.75
2023-05-19T17:17:26.212Z,101360.44
2023-05-19T17:19:54.517Z,101367.28
2023-05-19T17:22:21.548Z,101365.16
2023-05-19T17:24:48.617Z,101359.63
2023-05-19T17:27:15.673Z,101360.72
2023-05-19T17:29:42.785Z,101362.19
2023-05-19T17:32:09.851Z,101358.91
2023-05-19T17:34:36.989Z,101361.63
2023-05-19T17:37:09.761Z,101357.50
2023-05-19T17:39:36.780Z,101353.56
2023-05-19T17:42:04.620Z,101359.25
2023-05-19T17:44:31.664Z,101354.63
2023-05-19T17:46:58.786Z,101346.56
2023-05-19T17:49:26.177Z,101358.81
2023-05-19T17:51:53.771Z,101357.72
2023-05-19T17:54:22.109Z,101356.66
2023-05-19T17:56:50.945Z,101360.13
2023-05-19T17:59:18.423Z,101353.22
2023-05-19T18:01:46.386Z,101367.69
2023-05-19T18:04:15.402Z,101354.56
2023-05-19T18:06:46.053Z,101361.69
2023-05-19T18:09:16.488Z,101361.44
2023-05-19T18:11:43.500Z,101360.53
2023-05-19T18:14:10.934Z,101355.94
2023-05-19T18:16:38.353Z,101357.59
2023-05-19T18:19:05.438Z,101360.91
2023-05-19T18:21:32.608Z,101360.63
2023-05-19T18:24:04.354Z,101361.53
2023-05-19T18:26:33.155Z,101353.22
2023-05-19T18:29:02.819Z,101367.97
2023-05-19T18:31:29.965Z,101365.09
2023-05-19T18:33:57.079Z,101368.28
2023-05-19T18:36:24.102Z,101375.50
2023-05-19T18:38:51.073Z,101380.22
2023-05-19T18:41:18.436Z,101385.19
2023-05-19T18:43:45.784Z,101384.69
2023-05-19T18:46:13.618Z,101379.38
2023-05-19T18:48:40.862Z,101376.81
2023-05-19T18:51:09.443Z,101384.31
2023-05-19T18:53:37.294Z,101388.81
2023-05-19T18:56:04.743Z,101384.22
2023-05-19T18:58:32.250Z,101385.13
2023-05-19T19:00:59.435Z,101389.78
2023-05-19T19:03:26.769Z,101395.72
2023-05-19T19:05:58.143Z,101388.28
2023-05-19T19:08:25.679Z,101396.66
2023-05-19T19:10:53.579Z,101386.19
2023-05-19T19:13:21.119Z,101393.53
2023-05-19T19:15:48.151Z,101401.31
2023-05-19T19:18:15.174Z,101400.28
2023-05-19T19:20:42.374Z,101402.56
2023-05-19T19:23:09.382Z,101398.50
2023-05-19T19:25:36.607Z,101400.34
2023-05-19T19:28:04.094Z,101403.59
2023-05-19T19:30:31.243Z,101404.00
2023-05-19T19:32:59.504Z,101406.66
2023-05-19T19:35:26.609Z,101402.78
2023-05-19T19:37:53.809Z,101410.63
2023-05-19T19:40:20.914Z,101409.41
2023-05-19T19:42:47.967Z,101412.34
2023-05-19T19:45:15.780Z,101412.41
2023-05-19T19:47:43.130Z,101405.22
2023-05-19T19:50:11.515Z,101407.78
2023-05-19T19:52:38.659Z,101410.41
2023-05-19T19:55:07.046Z,101413.19
2023-05-19T19:57:34.360Z,101416.06
2023-05-19T20:00:07.932Z,101412.34
2023-05-19T20:02:51.694Z,101416.00
2023-05-19T20:05:26.816Z,101416.81
2023-05-19T20:07:54.191Z,101421.47
2023-05-19T20:10:21.622Z,101416.75
2023-05-19T20:12:50.565Z,101423.75
2023-05-19T20:15:17.851Z,101410.25
2023-05-19T20:17:44.917Z,101416.63
2023-05-19T20:20:12.708Z,101416.75
2023-05-19T20:22:40.186Z,101416.69
2023-05-19T20:25:07.918Z,101410.53
2023-05-19T20:27:34.968Z,101414.81
2023-05-19T20:30:02.000Z,101416.91
2023-05-19T20:32:29.160Z,101418.75
2023-05-19T20:34:56.620Z,101422.53
2023-05-19T20:37:23.808Z,101422.72
2023-05-19T20:39:50.859Z,101424.41
2023-05-19T20:42:17.855Z,101421.16
2023-05-19T20:44:45.075Z,101425.78
2023-05-19T20:47:12.333Z,101430.59
2023-05-19T20:49:39.399Z,101432.75
2023-05-19T20:52:06.787Z,101426.19
2023-05-19T20:54:34.026Z,101425.03
2023-05-19T20:57:06.352Z,101418.88
2023-05-19T20:59:33.681Z,101416.06
2023-05-19T21:02:00.831Z,101416.22
2023-05-19T21:04:28.082Z,101419.72
2023-05-19T21:06:55.207Z,101425.44
2023-05-19T21:09:22.558Z,101420.63
2023-05-19T21:11:49.630Z,101422.91
2023-05-19T21:14:16.697Z,101427.53
2023-05-19T21:16:43.790Z,101421.22
2023-05-19T21:19:11.006Z,101426.72
2023-05-19T21:21:41.838Z,101419.75
2023-05-19T21:24:11.530Z,101423.44
2023-05-19T21:26:39.322Z,101428.41
2023-05-19T21:29:06.944Z,101422.97
2023-05-19T21:31:35.445Z,101431.91
2023-05-19T21:34:04.095Z,101418.41
2023-05-19T21:36:31.816Z,101418.50
2023-05-19T21:38:58.917Z,101425.38
2023-05-19T21:41:26.052Z,101421.06
2023-05-19T21:43:53.173Z,101419.25
2023-05-19T21:46:20.295Z,101423.97
2023-05-19T21:48:47.375Z,101421.47
2023-05-19T21:51:14.450Z,101414.41
2023-05-19T21:53:41.878Z,101415.78
2023-05-19T21:56:08.923Z,101412.63
2023-05-19T21:58:36.088Z,101415.91
2023-05-19T22:01:03.640Z,101422.63
2023-05-19T22:03:30.801Z,101427.38
2023-05-19T22:05:57.942Z,101421.50
2023-05-19T22:08:26.075Z,101413.00
2023-05-19T22:10:53.610Z,101413.72
2023-05-19T22:13:21.553Z,101422.09
2023-05-19T22:15:48.673Z,101414.63
2023-05-19T22:18:15.805Z,101420.66
2023-05-19T22:20:43.228Z,101424.66
2023-05-19T22:23:11.400Z,101423.88
2023-05-19T22:25:38.448Z,101418.13
2023-05-19T22:28:07.923Z,101425.44
2023-05-19T22:30:42.339Z,101424.13
2023-05-19T22:33:11.355Z,101417.78
2023-05-19T22:35:38.610Z,101424.66
2023-05-19T22:38:06.454Z,101425.53
2023-05-19T22:40:34.696Z,101413.28
2023-05-19T22:43:01.996Z,101425.69
2023-05-19T22:45:29.119Z,101422.78
2023-05-19T22:47:56.260Z,101422.06
2023-05-19T22:50:23.385Z,101418.28
2023-05-19T22:52:50.606Z,101424.03
2023-05-19T22:55:17.720Z,101422.88
2023-05-19T22:57:44.964Z,101419.13
2023-05-19T23:00:14.386Z,101423.91
2023-05-19T23:02:44.713Z,101425.78
2023-05-19T23:05:11.822Z,101421.06
2023-05-19T23:07:38.916Z,101422.75
2023-05-19T23:10:07.658Z,101413.94
2023-05-19T23:12:34.895Z,101421.31
2023-05-19T23:15:02.337Z,101419.41
2023-05-19T23:17:29.411Z,101423.97
2023-05-19T23:19:56.546Z,101420.78
2023-05-19T23:22:23.655Z,101419.63
2023-05-19T23:24:50.856Z,101427.69
2023-05-19T23:27:17.886Z,101418.97
2023-05-19T23:29:49.530Z,101419.41
2023-05-19T23:32:16.716Z,101426.28
2023-05-19T23:34:43.980Z,101424.25
2023-05-19T23:37:11.788Z,101425.03
2023-05-19T23:39:38.894Z,101417.97
2023-05-19T23:42:06.279Z,101416.63
2023-05-19T23:44:33.386Z,101415.91
2023-05-19T23:47:00.582Z,101413.38
2023-05-19T23:49:27.756Z,101416.66
2023-05-19T23:51:54.879Z,101419.16
2023-05-19T23:54:22.048Z,101413.81
2023-05-19T23:56:49.081Z,101414.59
2023-05-19T23:59:16.121Z,101411.50
